createdAt,value
2023-03-26T00:02:17.169Z,19.38
2023-03-26T00:04:46.872Z,19.38
2023-03-26T00:07:14.578Z,19.34
2023-03-26T00:09:49.387Z,19.41
2023-03-26T00:12:16.865Z,19.44
2023-03-26T00:14:44.061Z,19.38
2023-03-26T00:17:11.377Z,19.39
2023-03-26T00:19:39.331Z,19.40
2023-03-26T00:22:13.714Z,19.30
2023-03-26T00:24:41.089Z,19.33
2023-03-26T00:27:09.014Z,18.62
2023-03-26T00:29:36.245Z,18.86
2023-03-26T00:32:08.983Z,19.03
2023-03-26T00:34:41.754Z,18.92
2023-03-26T00:37:09.128Z,18.54
2023-03-26T00:39:37.591Z,18.41
2023-03-26T00:42:07.158Z,18.40
2023-03-26T00:44:37.051Z,18.62
2023-03-26T00:47:04.452Z,18.73
2023-03-26T00:49:32.900Z,18.74
2023-03-26T00:52:03.388Z,18.73
2023-03-26T00:54:35.616Z,18.74
2023-03-26T00:57:03.341Z,18.31
2023-03-26T01:02:36.350Z,18.60
2023-03-26T01:05:34.103Z,18.59
2023-03-26T01:08:33.492Z,18.46
2023-03-26T01:11:22.681Z,18.09
2023-03-26T01:14:26.974Z,18.39
2023-03-26T01:16:56.594Z,18.41
2023-03-26T01:19:45.283Z,18.51
2023-03-26T01:22:19.167Z,18.47
2023-03-26T01:24:53.483Z,18.59
2023-03-26T01:27:24.870Z,18.44
2023-03-26T01:30:04.122Z,18.50
2023-03-26T01:32:47.746Z,18.61
2023-03-26T01:35:27.908Z,18.53
2023-03-26T01:38:02.750Z,18.43
2023-03-26T01:40:43.457Z,18.00
2023-03-26T01:43:25.855Z,17.88
2023-03-26T01:45:56.621Z,17.74
2023-03-26T01:48:49.936Z,18.21
2023-03-26T01:51:31.189Z,18.27
2023-03-26T01:53:58.715Z,18.51
2023-03-26T01:56:40.298Z,18.47
2023-03-26T01:59:10.556Z,18.50
2023-03-26T02:02:02.636Z,18.37
2023-03-26T02:04:55.205Z,18.10
2023-03-26T02:07:34.978Z,18.12
2023-03-26T02:10:10.762Z,18.22
2023-03-26T02:12:41.955Z,18.22
2023-03-26T02:15:10.050Z,18.19
2023-03-26T02:17:40.469Z,18.28
2023-03-26T02:20:10.734Z,17.89
2023-03-26T02:22:41.704Z,17.98
2023-03-26T02:25:13.362Z,18.12
2023-03-26T02:27:41.088Z,18.04
2023-03-26T02:30:16.464Z,18.18
2023-03-26T02:32:54.268Z,18.28
2023-03-26T02:35:23.945Z,18.40
2023-03-26T02:37:58.076Z,18.32
2023-03-26T02:40:26.052Z,18.40
2023-03-26T02:42:53.751Z,18.44
2023-03-26T02:45:22.290Z,18.48
2023-03-26T02:47:51.241Z,18.32
2023-03-26T02:50:56.848Z,17.97
2023-03-26T02:53:47.686Z,18.21
2023-03-26T02:56:38.094Z,18.31
2023-03-26T02:59:37.408Z,18.41
2023-03-26T03:02:40.098Z,18.36
2023-03-26T03:05:31.638Z,18.45
2023-03-26T03:08:20.883Z,18.38
2023-03-26T03:11:25.363Z,18.44
2023-03-26T03:13:54.916Z,18.45
2023-03-26T03:16:25.341Z,18.46
2023-03-26T03:18:57.992Z,18.47
2023-03-26T03:21:37.531Z,18.49
2023-03-26T03:24:05.210Z,18.41
2023-03-26T03:26:36.739Z,18.46
2023-03-26T03:29:16.317Z,18.44
2023-03-26T03:31:43.749Z,18.45
2023-03-26T03:34:23.657Z,18.46
2023-03-26T03:36:51.785Z,18.43
2023-03-26T03:39:36.017Z,18.44
2023-03-26T03:42:03.656Z,18.44
2023-03-26T03:44:30.989Z,18.35
2023-03-26T03:46:59.018Z,18.41
2023-03-26T03:49:26.610Z,18.41
2023-03-26T03:51:58.873Z,18.31
2023-03-26T03:54:32.667Z,18.36
2023-03-26T03:57:09.137Z,18.34
2023-03-26T03:59:48.027Z,18.38
2023-03-26T04:02:28.621Z,18.36
2023-03-26T04:04:59.255Z,18.35
2023-03-26T04:07:31.406Z,18.37
2023-03-26T04:10:09.634Z,18.29
2023-03-26T04:12:55.495Z,18.35
2023-03-26T04:15:42.290Z,18.34
2023-03-26T04:18:10.898Z,18.32
2023-03-26T04:20:46.695Z,18.31
2023-03-26T04:23:21.269Z,18.33
2023-03-26T04:25:54.827Z,18.33
2023-03-26T04:28:54.725Z,18.36
2023-03-26T04:31:29.678Z,18.33
2023-03-26T04:34:13.809Z,18.33
2023-03-26T04:36:54.766Z,18.32
2023-03-26T04:39:29.607Z,18.21
2023-03-26T04:42:20.157Z,18.29
2023-03-26T04:45:08.031Z,18.22
2023-03-26T04:47:37.272Z,18.23
2023-03-26T04:50:07.639Z,18.21
2023-03-26T04:52:37.308Z,18.19
2023-03-26T04:55:30.222Z,18.14
2023-03-26T04:58:06.112Z,18.16
2023-03-26T05:00:55.395Z,18.17
2023-03-26T05:03:25.879Z,18.15
2023-03-26T05:05:55.732Z,18.15
2023-03-26T05:08:23.322Z,18.01
2023-03-26T05:10:50.702Z,18.06
2023-03-26T05:13:28.372Z,18.10
2023-03-26T05:15:58.111Z,18.07
2023-03-26T05:18:51.876Z,18.14
2023-03-26T05:21:19.940Z,18.13
2023-03-26T05:23:47.130Z,18.14
2023-03-26T05:26:23.623Z,18.16
2023-03-26T05:28:52.751Z,18.17
2023-03-26T05:31:33.915Z,18.20
2023-03-26T05:34:04.018Z,18.17
2023-03-26T05:36:31.786Z,18.21
2023-03-26T05:39:09.961Z,18.23
2023-03-26T05:41:56.078Z,18.21
2023-03-26T05:44:30.247Z,18.23
2023-03-26T05:47:00.474Z,18.22
2023-03-26T05:49:28.675Z,18.23
2023-03-26T05:51:55.963Z,18.22
2023-03-26T05:54:42.940Z,18.15
2023-03-26T05:57:33.522Z,18.22
2023-03-26T06:00:22.089Z,18.25
2023-03-26T06:02:56.617Z,18.17
2023-03-26T06:05:45.643Z,18.20
2023-03-26T06:08:21.668Z,18.25
2023-03-26T06:10:51.735Z,18.36
2023-03-26T06:13:19.739Z,18.35
2023-03-26T06:15:51.503Z,18.38
2023-03-26T06:18:45.306Z,18.38
2023-03-26T06:21:29.759Z,18.40
2023-03-26T06:24:05.508Z,18.43
2023-03-26T06:26:46.710Z,18.47
2023-03-26T06:29:32.933Z,18.46
2023-03-26T06:32:20.013Z,18.45
2023-03-26T06:35:20.097Z,18.47
2023-03-26T06:37:47.503Z,18.52
2023-03-26T06:40:15.945Z,18.54
2023-03-26T06:43:09.374Z,18.57
2023-03-26T06:46:16.555Z,18.64
2023-03-26T06:49:28.515Z,18.65
2023-03-26T06:52:18.328Z,18.76
2023-03-26T06:55:12.576Z,18.84
2023-03-26T06:57:54.985Z,18.93
2023-03-26T07:00:43.198Z,19.04
2023-03-26T07:03:33.591Z,19.02
2023-03-26T07:06:19.555Z,19.15
2023-03-26T07:09:05.651Z,19.08
2023-03-26T07:11:58.040Z,19.26
2023-03-26T07:14:47.033Z,19.33
2023-03-26T07:17:43.789Z,19.38
2023-03-26T07:20:23.035Z,19.52
2023-03-26T07:22:51.428Z,19.56
2023-03-26T07:25:45.698Z,19.62
2023-03-26T07:28:27.289Z,19.81
2023-03-26T07:31:38.273Z,19.84
2023-03-26T07:34:50.379Z,19.75
2023-03-26T07:38:27.424Z,20.00
2023-03-26T07:41:22.997Z,20.08
2023-03-26T07:44:18.664Z,20.01
2023-03-26T07:47:26.287Z,20.42
2023-03-26T07:50:24.240Z,20.06
2023-03-26T07:53:12.814Z,20.45
2023-03-26T07:56:16.491Z,20.80
2023-03-26T07:59:15.959Z,20.76
2023-03-26T08:02:44.330Z,20.72
2023-03-26T08:06:23.696Z,20.89
2023-03-26T08:09:14.884Z,20.72
2023-03-26T08:12:30.979Z,20.83
2023-03-26T08:15:11.373Z,21.22
2023-03-26T08:17:38.608Z,21.15
2023-03-26T08:20:36.712Z,21.58
2023-03-26T08:23:30.469Z,21.82
2023-03-26T08:26:06.286Z,22.07
2023-03-26T08:29:02.261Z,22.19
2023-03-26T08:31:35.918Z,22.29
2023-03-26T08:34:09.750Z,22.25
2023-03-26T08:36:41.093Z,22.50
2023-03-26T08:39:13.290Z,22.62
2023-03-26T08:41:59.447Z,22.69
2023-03-26T08:45:12.531Z,22.90
2023-03-26T08:48:19.660Z,22.73
2023-03-26T08:51:29.535Z,22.93
2023-03-26T08:55:01.054Z,23.50
2023-03-26T08:58:05.560Z,23.68
2023-03-26T09:01:10.007Z,24.04
2023-03-26T09:03:52.515Z,24.26
2023-03-26T09:06:46.922Z,24.01
2023-03-26T09:09:54.939Z,24.43
2023-03-26T09:12:50.734Z,24.80
2023-03-26T09:15:46.036Z,24.96
2023-03-26T09:18:47.493Z,25.12
2023-03-26T09:21:58.638Z,25.45
2023-03-26T09:25:00.855Z,25.23
2023-03-26T09:28:22.412Z,25.06
2023-03-26T09:31:12.072Z,25.05
2023-03-26T09:34:13.211Z,24.68
2023-03-26T09:37:16.685Z,24.81
2023-03-26T09:40:39.205Z,24.76
2023-03-26T09:44:02.177Z,24.77
2023-03-26T09:46:46.150Z,24.48
2023-03-26T09:49:50.933Z,24.52
2023-03-26T09:53:07.731Z,24.79
2023-03-26T09:56:06.234Z,25.25
2023-03-26T09:58:54.266Z,25.88
2023-03-26T10:01:51.112Z,26.46
2023-03-26T10:05:08.252Z,26.65
2023-03-26T10:08:20.528Z,27.12
2023-03-26T10:11:18.211Z,27.60
2023-03-26T10:14:18.818Z,27.54
2023-03-26T10:17:16.449Z,27.92
2023-03-26T10:20:34.751Z,28.17
2023-03-26T10:24:16.761Z,28.30
2023-03-26T10:27:11.354Z,27.41
2023-03-26T10:30:10.037Z,27.42
2023-03-26T10:33:35.047Z,27.05
2023-03-26T10:36:30.045Z,26.57
2023-03-26T10:39:54.885Z,26.34
2023-03-26T10:42:52.922Z,26.51
2023-03-26T10:45:33.481Z,26.78
2023-03-26T10:49:08.021Z,26.66
2023-03-26T10:52:12.415Z,27.17
2023-03-26T10:55:12.370Z,27.33
2023-03-26T10:57:45.101Z,27.13
2023-03-26T11:00:21.810Z,27.55
2023-03-26T11:03:44.277Z,28.20
2023-03-26T11:06:32.735Z,27.87
2023-03-26T11:09:21.884Z,27.67
2023-03-26T11:12:32.059Z,27.65
2023-03-26T11:15:37.872Z,28.41
2023-03-26T11:18:12.163Z,28.36
2023-03-26T11:21:20.666Z,27.26
2023-03-26T11:24:23.216Z,27.75
2023-03-26T11:27:19.723Z,27.74
2023-03-26T11:30:18.588Z,27.49
2023-03-26T11:33:06.752Z,28.24
2023-03-26T11:36:01.654Z,27.73
2023-03-26T11:38:39.550Z,28.00
2023-03-26T11:41:46.934Z,28.30
2023-03-26T11:44:58.792Z,28.53
2023-03-26T11:48:11.919Z,29.14
2023-03-26T11:50:58.514Z,29.13
2023-03-26T11:53:34.784Z,29.57
2023-03-26T11:56:32.106Z,29.51
2023-03-26T11:59:21.799Z,29.65
2023-03-26T12:02:13.537Z,30.11
2023-03-26T12:04:51.092Z,29.12
2023-03-26T12:07:35.570Z,28.43
2023-03-26T12:10:32.667Z,29.55
2023-03-26T12:13:32.488Z,28.91
2023-03-26T12:16:14.828Z,28.74
2023-03-26T12:19:00.692Z,29.40
2023-03-26T12:21:34.782Z,29.50
2023-03-26T12:24:24.647Z,28.79
2023-03-26T12:27:38.293Z,29.43
2023-03-26T12:30:34.249Z,29.48
2023-03-26T12:33:26.943Z,30.03
2023-03-26T12:36:01.424Z,29.34
2023-03-26T12:39:16.353Z,29.96
2023-03-26T12:44:49.664Z,30.44
2023-03-26T12:48:44.706Z,30.32
2023-03-26T12:51:26.660Z,30.58
2023-03-26T12:54:16.362Z,30.25
2023-03-26T12:57:12.624Z,30.19
2023-03-26T12:59:53.916Z,30.35
2023-03-26T13:02:25.503Z,30.38
2023-03-26T13:05:19.859Z,30.51
2023-03-26T13:08:11.237Z,29.30
2023-03-26T13:11:02.554Z,29.86
2023-03-26T13:13:59.811Z,30.29
2023-03-26T13:17:06.260Z,30.87
2023-03-26T13:19:51.702Z,31.36
2023-03-26T13:22:47.320Z,30.79
2023-03-26T13:25:42.921Z,31.01
2023-03-26T13:28:40.140Z,30.73
2023-03-26T13:31:28.975Z,31.08
2023-03-26T13:34:15.031Z,30.76
2023-03-26T13:37:14.763Z,31.10
2023-03-26T13:40:19.893Z,31.82
2023-03-26T13:43:24.577Z,31.23
2023-03-26T13:46:30.804Z,30.58
2023-03-26T13:49:09.267Z,31.14
2023-03-26T13:51:55.117Z,30.94
2023-03-26T13:54:41.765Z,31.04
2023-03-26T13:57:41.646Z,31.06
2023-03-26T14:00:41.394Z,30.63
2023-03-26T14:03:21.135Z,30.21
2023-03-26T14:05:57.759Z,31.13
2023-03-26T14:08:50.959Z,30.38
2023-03-26T14:11:28.846Z,30.51
2023-03-26T14:14:28.202Z,30.87
2023-03-26T14:17:05.066Z,30.51
2023-03-26T14:19:47.834Z,30.51
2023-03-26T14:22:51.847Z,30.28
2023-03-26T14:25:56.508Z,30.38
2023-03-26T14:28:53.831Z,30.16
2023-03-26T14:32:05.865Z,30.27
2023-03-26T14:35:20.436Z,29.39
2023-03-26T14:38:31.508Z,30.06
2023-03-26T14:41:35.374Z,29.82
2023-03-26T14:44:48.819Z,29.34
2023-03-26T14:47:25.184Z,29.59
2023-03-26T14:49:59.485Z,29.23
2023-03-26T14:52:47.354Z,29.73
2023-03-26T14:55:31.741Z,29.69
2023-03-26T14:58:35.739Z,28.88
2023-03-26T15:04:41.539Z,29.61
2023-03-26T15:07:50.419Z,29.77
2023-03-26T15:10:58.472Z,29.64
2023-03-26T15:14:07.889Z,29.90
2023-03-26T15:17:08.249Z,29.65
2023-03-26T15:20:10.767Z,28.67
2023-03-26T15:23:24.823Z,28.71
2023-03-26T15:26:36.020Z,28.24
2023-03-26T15:33:06.015Z,27.67
2023-03-26T15:36:07.447Z,27.14
2023-03-26T15:39:33.675Z,27.22
2023-03-26T15:42:31.054Z,26.88
2023-03-26T15:45:34.521Z,26.76
2023-03-26T15:51:52.577Z,26.32
2023-03-26T15:54:36.761Z,26.14
2023-03-26T15:57:17.003Z,26.14
2023-03-26T16:00:25.533Z,25.51
2023-03-26T16:03:14.384Z,25.62
2023-03-26T16:06:12.791Z,25.40
2023-03-26T16:09:49.595Z,25.43
2023-03-26T16:12:47.093Z,25.47
2023-03-26T16:15:39.983Z,25.22
2023-03-26T16:18:33.194Z,25.15
2023-03-26T16:21:37.371Z,24.78
2023-03-26T16:24:27.190Z,24.91
2023-03-26T16:27:34.109Z,24.80
2023-03-26T16:30:42.422Z,24.67
2023-03-26T16:34:03.528Z,24.09
2023-03-26T16:36:50.225Z,23.62
2023-03-26T16:39:45.315Z,23.93
2023-03-26T16:43:01.658Z,23.18
2023-03-26T16:45:38.980Z,23.36
2023-03-26T16:48:24.130Z,23.31
2023-03-26T16:51:16.556Z,23.48
2023-03-26T16:54:38.287Z,23.21
2023-03-26T16:57:45.428Z,22.82
2023-03-26T17:00:47.533Z,22.60
2023-03-26T17:03:48.284Z,22.79
2023-03-26T17:06:56.326Z,22.49
2023-03-26T17:09:49.804Z,22.46
2023-03-26T17:12:57.948Z,22.75
2023-03-26T17:15:36.794Z,22.58
2023-03-26T17:18:40.158Z,22.30
2023-03-26T17:21:58.933Z,22.11
2023-03-26T17:25:15.134Z,22.10
2023-03-26T17:28:41.775Z,22.11
2023-03-26T17:31:56.612Z,21.89
2023-03-26T17:34:55.206Z,21.78
2023-03-26T17:37:43.738Z,21.62
2023-03-26T17:40:45.738Z,21.62
2023-03-26T17:43:44.004Z,21.33
2023-03-26T17:46:24.418Z,21.29
2023-03-26T17:49:13.157Z,21.08
2023-03-26T17:52:20.583Z,21.33
2023-03-26T17:55:02.556Z,21.56
2023-03-26T17:58:01.729Z,21.51
2023-03-26T18:04:08.668Z,21.09
2023-03-26T18:07:15.633Z,20.84
2023-03-26T18:10:08.928Z,21.10
2023-03-26T18:12:54.773Z,20.96
2023-03-26T18:16:06.863Z,20.99
2023-03-26T18:18:51.349Z,20.99
2023-03-26T18:21:30.929Z,20.95
2023-03-26T18:24:07.207Z,21.09
2023-03-26T18:27:04.296Z,20.92
2023-03-26T18:30:03.589Z,20.69
2023-03-26T18:33:00.070Z,20.82
2023-03-26T18:35:55.805Z,20.78
2023-03-26T18:38:45.499Z,20.74
2023-03-26T18:41:39.618Z,20.66
2023-03-26T18:44:13.325Z,20.49
2023-03-26T18:46:55.934Z,20.65
2023-03-26T18:49:32.352Z,20.50
2023-03-26T18:52:10.196Z,20.35
2023-03-26T18:54:49.112Z,20.41
2023-03-26T18:57:40.614Z,20.53
2023-03-26T19:00:38.719Z,20.64
2023-03-26T19:03:21.293Z,20.40
2023-03-26T19:06:04.274Z,20.03
2023-03-26T19:08:47.003Z,20.37
2023-03-26T19:11:25.970Z,20.30
2023-03-26T19:14:20.666Z,20.02
2023-03-26T19:17:05.545Z,20.12
2023-03-26T19:19:53.796Z,20.18
2023-03-26T19:22:45.818Z,20.36
2023-03-26T19:26:00.615Z,20.41
2023-03-26T19:28:33.573Z,20.15
2023-03-26T19:31:24.676Z,20.39
2023-03-26T19:34:23.643Z,20.36
2023-03-26T19:37:19.379Z,20.38
2023-03-26T19:40:21.413Z,20.55
2023-03-26T19:42:54.046Z,20.30
2023-03-26T19:45:34.516Z,20.42
2023-03-26T19:48:14.162Z,20.23
2023-03-26T19:51:20.301Z,20.03
2023-03-26T19:53:55.234Z,20.18
2023-03-26T19:56:31.193Z,20.35
2023-03-26T19:58:59.418Z,20.33
2023-03-26T20:01:36.080Z,20.37
2023-03-26T20:04:21.599Z,20.37
2023-03-26T20:06:50.226Z,20.29
2023-03-26T20:09:27.012Z,20.11
2023-03-26T20:11:56.662Z,20.16
2023-03-26T20:17:13.595Z,20.07
2023-03-26T20:19:42.136Z,20.12
2023-03-26T20:22:20.209Z,19.98
2023-03-26T20:25:00.316Z,19.87
2023-03-26T20:27:30.178Z,19.98
2023-03-26T20:29:59.135Z,19.97
2023-03-26T20:32:27.530Z,20.00
2023-03-26T20:35:02.563Z,19.93
2023-03-26T20:37:32.339Z,20.06
2023-03-26T20:40:09.158Z,20.12
2023-03-26T20:42:36.488Z,20.26
2023-03-26T20:45:18.688Z,20.44
2023-03-26T20:47:49.909Z,20.55
2023-03-26T20:50:19.288Z,20.71
2023-03-26T20:52:49.603Z,20.86
2023-03-26T20:55:33.024Z,21.04
2023-03-26T20:58:01.364Z,20.91
2023-03-26T21:00:32.596Z,21.34
2023-03-26T21:03:00.441Z,21.16
2023-03-26T21:05:29.397Z,21.24
2023-03-26T21:07:59.578Z,21.31
2023-03-26T21:10:32.710Z,21.32
2023-03-26T21:13:24.509Z,21.22
2023-03-26T21:15:52.042Z,21.34
2023-03-26T21:18:21.595Z,21.45
2023-03-26T21:21:14.125Z,21.54
2023-03-26T21:24:08.347Z,21.60
2023-03-26T21:29:41.328Z,21.45
2023-03-26T21:32:12.707Z,21.43
2023-03-26T21:34:47.845Z,21.58
2023-03-26T21:37:27.217Z,21.35
2023-03-26T21:39:56.239Z,21.33
2023-03-26T21:42:29.926Z,21.59
2023-03-26T21:45:05.194Z,21.17
2023-03-26T21:47:38.382Z,21.57
2023-03-26T21:50:17.606Z,21.40
2023-03-26T21:52:52.363Z,21.30
2023-03-26T21:55:38.926Z,21.54
2023-03-26T21:58:11.164Z,21.37
2023-03-26T22:01:05.487Z,20.93
2023-03-26T22:04:06.147Z,21.07
2023-03-26T22:07:15.020Z,21.00
2023-03-26T22:09:43.814Z,20.93
2023-03-26T22:12:16.357Z,21.02
2023-03-26T22:14:43.714Z,20.83
2023-03-26T22:17:13.274Z,20.91
2023-03-26T22:19:45.477Z,20.99
2023-03-26T22:22:33.442Z,20.64
2023-03-26T22:25:05.545Z,20.46
2023-03-26T22:27:35.144Z,20.82
2023-03-26T22:30:28.889Z,20.52
2023-03-26T22:32:59.734Z,20.70
2023-03-26T22:35:27.807Z,20.35
2023-03-26T22:38:01.392Z,20.38
2023-03-26T22:40:34.978Z,20.33
2023-03-26T22:43:02.111Z,20.26
2023-03-26T22:45:49.621Z,20.07
2023-03-26T22:48:24.045Z,20.06
2023-03-26T22:51:09.606Z,20.08
2023-03-26T22:53:41.052Z,20.35
2023-03-26T22:56:18.532Z,19.83
2023-03-26T22:58:47.927Z,20.01
2023-03-26T23:01:26.537Z,19.94
2023-03-26T23:03:54.641Z,19.81
2023-03-26T23:06:21.896Z,19.64
2023-03-26T23:08:53.110Z,19.52
2023-03-26T23:11:22.345Z,19.64
2023-03-26T23:13:50.052Z,19.52
2023-03-26T23:16:18.385Z,19.45
2023-03-26T23:18:46.017Z,19.26
2023-03-26T23:21:16.231Z,19.50
2023-03-26T23:23:44.718Z,19.59
2023-03-26T23:26:12.218Z,19.22
2023-03-26T23:28:41.187Z,19.39
2023-03-26T23:31:13.077Z,19.53
2023-03-26T23:33:46.424Z,19.15
2023-03-26T23:36:19.860Z,19.33
2023-03-26T23:38:48.657Z,19.46
2023-03-26T23:41:18.140Z,19.17
2023-03-26T23:43:54.789Z,18.88
2023-03-26T23:46:31.083Z,19.43
2023-03-26T23:49:04.505Z,19.02
2023-03-26T23:51:35.179Z,18.70
2023-03-26T23:54:03.263Z,18.63
2023-03-26T23:56:30.431Z,18.82
2023-03-26T23:59:02.452Z,18.76
